Time;durP1;ratioP1;P1;durP2;ratioP2;P2;SDS_P1;SDS_P2;PMS_P1;PMS_P2;Temp;Humidity;BMP_temperature;BMP_pressure;BME280_temperature;BME280_humidity;BME280_pressure;Samples;Min_cycle;Max_cycle;Signal;HPM_P1;HPM_P2
2023/01/30 00:01:42;;;;;;;12.25;2.22;;;7.30;99.90;;;;;;5100353;27;20043;-60
2023/01/30 00:04:11;;;;;;;16.10;2.03;;;7.30;99.90;;;;;;5107483;27;20044;-60
2023/01/30 00:06:41;;;;;;;9.93;1.60;;;7.30;99.90;;;;;;5108865;28;20050;-61
2023/01/30 00:09:13;;;;;;;22.42;2.50;;;7.30;99.90;;;;;;5091395;28;20055;-57
2023/01/30 00:11:41;;;;;;;19.80;2.38;;;7.30;99.90;;;;;;5112677;27;20036;-58
2023/01/30 00:14:09;;;;;;;21.27;2.20;;;7.20;99.90;;;;;;5118649;27;20054;-58
2023/01/30 00:16:36;;;;;;;17.05;2.45;;;7.20;99.90;;;;;;5126512;27;20422;-58
2023/01/30 00:19:04;;;;;;;22.48;2.50;;;7.20;99.90;;;;;;5090547;28;20557;-57
2023/01/30 00:21:32;;;;;;;20.10;3.65;;;7.10;99.90;;;;;;5095707;28;20505;-57
2023/01/30 00:23:59;;;;;;;20.65;2.60;;;7.10;99.90;;;;;;5110109;28;20050;-60
2023/01/30 00:26:27;;;;;;;17.15;2.10;;;7.10;99.90;;;;;;5089331;28;20664;-60
2023/01/30 00:28:55;;;;;;;22.45;2.50;;;7.00;99.90;;;;;;5091722;28;20055;-60
2023/01/30 00:31:23;;;;;;;15.52;2.17;;;7.00;99.90;;;;;;5093008;28;20059;-60
2023/01/30 00:33:50;;;;;;;6.32;1.67;;;7.00;99.90;;;;;;5067371;28;20049;-61
2023/01/30 00:36:18;;;;;;;19.67;2.30;;;7.00;99.90;;;;;;5070735;28;20051;-60
2023/01/30 00:38:45;;;;;;;12.40;1.65;;;6.90;99.90;;;;;;5067793;28;20059;-61
2023/01/30 00:41:14;;;;;;;18.88;3.35;;;6.90;99.90;;;;;;5067546;28;20508;-58
2023/01/30 00:49:19;;;;;;;19.13;2.47;;;6.90;99.90;;;;;;5065819;28;20048;-61
2023/01/30 00:51:46;;;;;;;19.45;2.90;;;6.90;99.90;;;;;;5060603;28;20045;-60
2023/01/30 00:54:14;;;;;;;22.95;2.03;;;6.90;99.90;;;;;;5069230;28;20072;-61
2023/01/30 00:56:42;;;;;;;25.63;3.65;;;6.80;99.90;;;;;;5068439;28;20052;-60
2023/01/30 00:59:09;;;;;;;15.55;1.80;;;6.80;99.90;;;;;;5066143;28;20037;-59
2023/01/30 01:01:37;;;;;;;18.70;3.35;;;6.80;99.90;;;;;;5080949;28;20047;-59
2023/01/30 01:04:06;;;;;;;21.30;2.10;;;6.80;99.90;;;;;;5068580;28;20064;-60
2023/01/30 01:06:33;;;;;;;17.77;2.33;;;6.80;99.90;;;;;;5068538;28;20060;-58
2023/01/30 01:09:01;;;;;;;18.55;2.38;;;6.80;99.90;;;;;;5067926;28;20059;-60
2023/01/30 01:11:29;;;;;;;13.25;2.17;;;6.70;99.90;;;;;;5065673;28;20064;-58
2023/01/30 01:13:59;;;;;;;18.80;2.70;;;6.70;99.90;;;;;;5066796;28;20052;-58
2023/01/30 01:16:29;;;;;;;17.25;2.15;;;6.70;99.90;;;;;;5072140;28;20395;-58
2023/01/30 01:18:58;;;;;;;;;;;6.70;99.90;;;;;;5062687;28;20518;-58
2023/01/30 01:21:25;;;;;;;23.85;2.05;;;6.70;99.90;;;;;;5062246;28;20379;-59
2023/01/30 01:23:56;;;;;;;20.75;2.50;;;6.40;99.90;;;;;;5068031;28;20036;-58
2023/01/30 01:26:25;;;;;;;17.98;2.30;;;6.70;99.90;;;;;;5067116;28;20040;-58
2023/01/30 01:28:56;;;;;;;14.07;2.05;;;6.70;99.90;;;;;;5071685;28;20044;-58
2023/01/30 01:31:25;;;;;;;15.43;2.65;;;6.60;99.90;;;;;;5085790;28;21028;-58
2023/01/30 01:33:55;;;;;;;12.98;1.98;;;6.60;99.90;;;;;;5088778;28;20048;-58
2023/01/30 01:36:25;;;;;;;25.88;2.80;;;6.60;99.90;;;;;;5078297;28;20064;-58
2023/01/30 01:39:13;;;;;;;14.65;2.60;;;6.70;99.90;;;;;;5081251;28;20052;-58
2023/01/30 01:41:41;;;;;;;15.15;2.50;;;6.70;99.90;;;;;;5085288;28;20055;-58
2023/01/30 01:44:15;;;;;;;11.88;1.98;;;6.70;99.90;;;;;;5088899;28;20052;-59
2023/01/30 01:46:52;;;;;;;20.48;2.30;;;6.70;99.90;;;;;;5089157;28;20407;-58
2023/01/30 01:49:25;;;;;;;17.83;2.35;;;6.60;99.90;;;;;;5090699;28;20383;-57
2023/01/30 01:51:55;;;;;;;22.45;1.92;;;6.60;99.90;;;;;;5089512;28;20044;-58
2023/01/30 01:54:36;;;;;;;27.52;2.72;;;6.60;99.90;;;;;;5091166;28;20063;-57
2023/01/30 01:57:14;;;;;;;12.35;2.55;;;6.40;99.90;;;;;;5082774;28;20413;-56
2023/01/30 01:59:50;;;;;;;21.58;2.50;;;6.40;99.90;;;;;;5071683;28;20048;-59
2023/01/30 02:02:19;;;;;;;16.35;1.90;;;6.40;99.90;;;;;;5089842;28;20040;-59
2023/01/30 02:05:00;;;;;;;11.95;2.00;;;6.30;99.90;;;;;;5088712;28;20501;-59
2023/01/30 02:07:35;;;;;;;17.23;2.22;;;6.20;99.90;;;;;;5087429;28;20060;-58
2023/01/30 02:10:05;;;;;;;15.00;2.13;;;6.20;99.90;;;;;;5087877;28;20036;-57
2023/01/30 02:12:33;;;;;;;;;;;6.20;99.90;;;;;;5079479;28;20059;-58
2023/01/30 02:15:01;;;;;;;19.83;3.55;;;6.10;99.90;;;;;;5089235;28;19920;-60
2023/01/30 02:17:29;;;;;;;26.60;3.07;;;6.10;99.90;;;;;;5081684;28;20048;-60
2023/01/30 02:20:18;;;;;;;14.60;2.38;;;6.00;99.90;;;;;;5091351;28;20048;-58
2023/01/30 02:23:14;;;;;;;17.40;1.80;;;6.00;99.90;;;;;;5101607;28;20047;-57
2023/01/30 02:26:03;;;;;;;18.70;2.15;;;5.90;99.90;;;;;;5070787;28;20045;-57
2023/01/30 02:29:07;;;;;;;8.70;1.55;;;5.90;99.90;;;;;;5071328;28;20041;-57
2023/01/30 02:31:38;;;;;;;23.38;3.00;;;5.80;99.90;;;;;;5104580;27;20039;-57
2023/01/30 02:34:29;;;;;;;16.13;1.92;;;5.90;99.90;;;;;;5086389;28;20055;-58
2023/01/30 02:37:19;;;;;;;19.88;3.08;;;5.90;99.90;;;;;;5092285;27;20040;-58
2023/01/30 02:39:52;;;;;;;10.00;1.70;;;5.80;99.90;;;;;;5072556;28;20051;-57
2023/01/30 02:42:49;;;;;;;8.48;1.38;;;5.90;99.90;;;;;;5089374;28;20028;-58
2023/01/30 02:45:46;;;;;;;10.48;1.67;;;5.90;99.90;;;;;;5036931;28;20057;-60
2023/01/30 02:48:26;;;;;;;14.80;1.65;;;6.00;99.90;;;;;;5085154;28;20055;-61
2023/01/30 02:51:06;;;;;;;16.38;2.30;;;5.90;99.90;;;;;;5076500;28;20056;-60
2023/01/30 02:53:35;;;;;;;15.32;1.63;;;5.80;99.90;;;;;;5070862;28;20041;-60
2023/01/30 02:56:04;;;;;;;11.18;1.75;;;5.70;99.90;;;;;;5110763;27;20040;-61
2023/01/30 02:58:37;;;;;;;19.38;2.50;;;5.70;99.90;;;;;;5080486;28;20049;-61
2023/01/30 03:01:33;;;;;;;9.65;1.98;;;5.70;99.90;;;;;;5072455;28;20399;-61
2023/01/30 03:04:07;;;;;;;5.82;1.33;;;5.60;99.90;;;;;;5091822;28;20044;-61
2023/01/30 03:06:47;;;;;;;8.80;1.33;;;5.60;99.90;;;;;;5088990;28;20047;-60
2023/01/30 03:09:40;;;;;;;10.38;1.85;;;5.50;99.90;;;;;;5083416;28;20039;-59
2023/01/30 03:12:15;;;;;;;9.13;1.20;;;5.50;99.90;;;;;;5084048;28;20059;-61
2023/01/30 03:14:50;;;;;;;8.30;1.75;;;5.40;99.90;;;;;;5074639;28;20051;-61
2023/01/30 03:17:20;;;;;;;8.50;1.42;;;5.40;99.90;;;;;;5104180;27;20484;-60
2023/01/30 03:19:48;;;;;;;;;;;5.40;99.90;;;;;;5091985;28;20048;-60
2023/01/30 03:22:16;;;;;;;17.58;2.85;;;5.40;99.90;;;;;;5089603;28;19927;-59
2023/01/30 03:24:44;;;;;;;19.23;1.95;;;5.40;99.90;;;;;;5089305;28;20044;-61
2023/01/30 03:27:12;;;;;;;10.75;1.95;;;5.30;99.90;;;;;;5084365;28;20051;-61
2023/01/30 03:29:39;;;;;;;9.43;2.08;;;5.30;99.90;;;;;;5080506;28;20052;-61
2023/01/30 03:32:07;;;;;;;10.35;1.42;;;5.30;99.90;;;;;;5112764;28;20059;-60
2023/01/30 03:34:35;;;;;;;13.90;2.17;;;5.30;99.90;;;;;;5097430;28;20046;-61
2023/01/30 03:37:04;;;;;;;16.50;2.22;;;5.30;99.90;;;;;;5090844;28;20043;-61
2023/01/30 03:39:35;;;;;;;15.75;2.35;;;5.30;99.90;;;;;;5108510;28;20048;-61
2023/01/30 03:42:05;;;;;;;15.77;2.08;;;5.30;99.90;;;;;;5093848;27;20047;-61
2023/01/30 03:44:32;;;;;;;11.88;1.00;;;5.20;99.90;;;;;;5114813;27;20053;-60
2023/01/30 03:47:01;;;;;;;12.10;1.70;;;5.20;99.90;;;;;;5105778;28;20040;-62
2023/01/30 03:49:28;;;;;;;9.15;1.00;;;5.20;99.90;;;;;;5094163;28;20039;-61
2023/01/30 03:51:57;;;;;;;17.73;1.35;;;5.10;99.90;;;;;;5094227;28;20048;-62
2023/01/30 03:54:25;;;;;;;11.05;1.52;;;5.00;99.90;;;;;;5094355;28;20051;-61
2023/01/30 03:56:53;;;;;;;10.23;1.50;;;5.00;99.90;;;;;;5077249;28;20490;-60
2023/01/30 03:59:22;;;;;;;12.00;1.10;;;5.00;99.90;;;;;;5084740;28;20039;-60
2023/01/30 04:01:58;;;;;;;14.32;1.33;;;5.00;99.90;;;;;;5107686;28;20036;-61
2023/01/30 04:04:26;;;;;;;16.88;1.77;;;5.00;99.90;;;;;;5093529;28;20505;-60
2023/01/30 04:06:55;;;;;;;10.63;1.75;;;5.00;99.90;;;;;;5093744;28;20044;-62
2023/01/30 04:09:23;;;;;;;8.20;1.60;;;4.90;99.90;;;;;;5093961;28;20036;-61
2023/01/30 04:11:52;;;;;;;16.00;1.67;;;5.00;99.90;;;;;;5076587;28;20422;-61
2023/01/30 04:14:19;;;;;;;14.23;1.73;;;4.90;99.90;;;;;;5099637;28;20035;-60
2023/01/30 04:17:13;;;;;;;11.05;1.50;;;4.90;99.90;;;;;;5062107;28;20513;-62
2023/01/30 04:19:47;;;;;;;25.33;2.30;;;4.90;99.90;;;;;;5112012;28;20406;-61
2023/01/30 04:22:14;;;;;;;11.02;1.98;;;4.90;99.90;;;;;;5093844;28;20039;-61
2023/01/30 04:24:42;;;;;;;14.95;1.92;;;4.80;99.90;;;;;;5111445;28;20055;-61
2023/01/30 04:27:09;;;;;;;8.88;1.42;;;4.90;99.90;;;;;;5111857;28;20035;-61
2023/01/30 04:29:45;;;;;;;8.65;0.88;;;4.80;99.90;;;;;;5092752;28;20044;-61
2023/01/30 04:32:13;;;;;;;18.38;2.30;;;4.80;99.90;;;;;;5093092;28;20047;-61
2023/01/30 04:34:42;;;;;;;14.18;2.15;;;4.80;99.90;;;;;;5104523;28;20046;-60
2023/01/30 04:37:11;;;;;;;11.37;1.60;;;4.80;99.90;;;;;;5093644;28;20509;-61
2023/01/30 04:39:39;;;;;;;18.05;1.92;;;4.70;99.90;;;;;;5093145;28;20304;-60
2023/01/30 04:42:07;;;;;;;13.27;1.25;;;4.70;99.90;;;;;;5111924;28;20047;-60
2023/01/30 04:44:43;;;;;;;10.95;1.20;;;4.70;99.90;;;;;;5098964;28;20051;-61
2023/01/30 04:47:16;;;;;;;9.90;1.65;;;4.80;99.90;;;;;;5093130;28;20056;-61
2023/01/30 04:49:44;;;;;;;7.25;0.88;;;4.70;99.90;;;;;;5088160;28;20047;-58
2023/01/30 04:52:14;;;;;;;7.80;1.17;;;4.70;99.90;;;;;;5106804;28;20092;-58
2023/01/30 04:54:42;;;;;;;14.85;1.92;;;4.70;99.90;;;;;;5093534;28;20050;-58
2023/01/30 04:57:10;;;;;;;14.88;1.77;;;4.70;99.90;;;;;;5093662;28;20040;-58
2023/01/30 04:59:37;;;;;;;7.00;1.42;;;4.80;99.90;;;;;;5093306;28;20036;-58
2023/01/30 05:02:09;;;;;;;6.05;0.93;;;4.80;99.90;;;;;;5093443;28;20035;-57
2023/01/30 05:04:37;;;;;;;14.77;1.30;;;4.90;99.90;;;;;;5110857;28;20371;-56
2023/01/30 05:07:04;;;;;;;8.38;1.73;;;4.90;99.90;;;;;;5104359;28;20059;-58
2023/01/30 05:09:32;;;;;;;8.02;1.15;;;5.00;99.90;;;;;;5104171;28;20501;-57
2023/01/30 05:11:59;;;;;;;9.85;2.08;;;5.00;99.90;;;;;;5109389;28;20056;-58
2023/01/30 05:14:27;;;;;;;9.25;2.00;;;5.00;99.90;;;;;;5111007;28;20035;-62
2023/01/30 05:16:55;;;;;;;13.82;3.10;;;5.10;99.90;;;;;;5101807;28;20403;-61
2023/01/30 05:19:22;;;;;;;11.88;1.25;;;5.10;99.90;;;;;;5111513;28;20051;-61
2023/01/30 05:21:50;;;;;;;17.10;2.20;;;5.20;99.90;;;;;;5111231;28;20043;-62
2023/01/30 05:24:18;;;;;;;12.23;1.70;;;5.20;99.90;;;;;;5101500;28;20062;-61
2023/01/30 05:26:45;;;;;;;17.25;2.10;;;5.20;99.90;;;;;;5091009;28;20052;-62
2023/01/30 05:29:13;;;;;;;8.07;1.23;;;5.20;99.90;;;;;;5090987;28;20052;-62
2023/01/30 05:31:40;;;;;;;17.75;3.22;;;5.30;99.90;;;;;;5090841;28;20040;-62
2023/01/30 05:34:11;;;;;;;11.70;1.90;;;5.30;99.90;;;;;;5108236;28;20059;-61
2023/01/30 05:36:38;;;;;;;;;;;5.30;99.90;;;;;;5092693;28;20486;-61
2023/01/30 05:39:06;;;;;;;18.83;2.60;;;5.30;99.90;;;;;;5111204;28;19923;-62
2023/01/30 05:41:33;;;;;;;13.38;1.60;;;5.20;99.90;;;;;;5110419;28;20055;-62
2023/01/30 05:44:01;;;;;;;16.23;1.45;;;5.20;99.90;;;;;;5111985;28;20055;-61
2023/01/30 05:46:28;;;;;;;14.80;1.70;;;5.10;99.90;;;;;;5095701;28;20407;-62
2023/01/30 05:48:56;;;;;;;18.85;1.55;;;5.10;99.90;;;;;;5100562;27;20040;-61
2023/01/30 05:51:25;;;;;;;7.75;1.77;;;5.10;99.90;;;;;;5111324;28;20360;-60
2023/01/30 05:53:53;;;;;;;10.90;2.13;;;5.00;99.90;;;;;;5106330;27;20036;-61
2023/01/30 05:56:22;;;;;;;18.60;2.55;;;5.00;99.90;;;;;;5093054;28;20438;-61
2023/01/30 05:58:52;;;;;;;22.05;1.50;;;5.10;99.90;;;;;;5097306;28;20040;-61
2023/01/30 06:01:20;;;;;;;11.88;1.70;;;5.10;99.90;;;;;;5090813;28;20048;-61
2023/01/30 06:03:49;;;;;;;19.75;2.55;;;5.10;99.90;;;;;;5103933;27;20048;-60
2023/01/30 06:06:17;;;;;;;20.52;2.75;;;5.20;99.90;;;;;;5097343;28;20071;-61
2023/01/30 06:08:45;;;;;;;8.77;1.70;;;5.20;99.90;;;;;;5108991;28;20047;-60
2023/01/30 06:11:16;;;;;;;13.75;1.65;;;5.30;99.90;;;;;;5110240;28;20036;-60
2023/01/30 06:13:44;;;;;;;19.00;2.40;;;5.20;99.90;;;;;;5116383;27;20782;-61
2023/01/30 06:16:13;;;;;;;15.90;2.25;;;5.20;99.90;;;;;;5094711;28;20055;-59
2023/01/30 06:18:42;;;;;;;20.75;2.25;;;5.30;99.90;;;;;;5105557;28;20036;-57
2023/01/30 06:21:09;;;;;;;16.85;1.98;;;5.30;99.90;;;;;;5092658;28;20052;-57
2023/01/30 06:23:37;;;;;;;13.57;1.80;;;5.30;99.90;;;;;;5111857;28;20398;-58
2023/01/30 06:26:05;;;;;;;15.65;3.53;;;5.30;99.90;;;;;;5112418;28;20056;-58
2023/01/30 06:28:36;;;;;;;13.07;1.67;;;5.40;99.90;;;;;;5110888;28;20043;-58
2023/01/30 06:31:06;;;;;;;16.20;1.75;;;5.40;99.90;;;;;;5099353;28;20495;-57
2023/01/30 06:33:34;;;;;;;12.65;1.38;;;5.40;99.90;;;;;;5095078;28;24184;-57
2023/01/30 06:36:02;;;;;;;14.02;2.17;;;5.40;99.90;;;;;;5085784;28;20070;-57
2023/01/30 06:38:30;;;;;;;19.83;2.00;;;5.40;99.90;;;;;;5106671;28;20063;-58
2023/01/30 06:40:57;;;;;;;16.48;2.05;;;5.40;99.90;;;;;;5109258;28;20398;-61
2023/01/30 06:43:25;;;;;;;12.77;1.63;;;5.50;99.90;;;;;;5111355;27;20051;-62
2023/01/30 06:45:52;;;;;;;19.05;2.25;;;5.50;99.90;;;;;;5091595;28;20051;-61
2023/01/30 06:48:20;;;;;;;19.95;1.65;;;5.60;99.90;;;;;;5101354;28;20372;-61
2023/01/30 06:50:48;;;;;;;21.73;2.60;;;5.60;99.90;;;;;;5103388;27;20035;-61
2023/01/30 06:53:15;;;;;;;15.15;2.42;;;5.70;99.90;;;;;;5117604;27;20093;-61
2023/01/30 06:55:43;;;;;;;9.57;1.48;;;5.70;99.90;;;;;;5132402;27;20436;-58
2023/01/30 06:58:12;;;;;;;14.27;1.67;;;5.70;99.90;;;;;;5112456;27;20078;-59
2023/01/30 07:00:41;;;;;;;10.00;1.85;;;5.80;99.90;;;;;;5110992;28;20479;-61
2023/01/30 07:03:16;;;;;;;16.53;2.43;;;5.70;99.90;;;;;;5106726;28;20050;-61
2023/01/30 07:05:45;;;;;;;15.10;1.88;;;5.70;99.90;;;;;;5095294;28;20296;-61
2023/01/30 07:08:14;;;;;;;8.30;2.53;;;5.70;99.90;;;;;;5103495;28;20032;-61
2023/01/30 07:10:42;;;;;;;12.90;1.87;;;5.70;99.90;;;;;;5075981;28;20051;-61
2023/01/30 07:13:10;;;;;;;13.80;1.30;;;6.40;99.90;;;;;;5116560;27;20291;-61
2023/01/30 07:15:38;;;;;;;17.63;3.00;;;5.70;99.90;;;;;;5109944;28;20036;-61
2023/01/30 07:18:05;;;;;;;13.70;1.52;;;5.70;99.90;;;;;;5107128;28;20074;-60
2023/01/30 07:20:33;;;;;;;10.43;2.15;;;5.70;99.90;;;;;;5096288;28;20052;-61
2023/01/30 07:23:02;;;;;;;9.75;1.73;;;5.60;99.90;;;;;;5106931;28;20051;-58
2023/01/30 07:25:30;;;;;;;13.57;2.25;;;5.60;99.90;;;;;;5110124;28;20043;-62
2023/01/30 07:27:59;;;;;;;19.77;2.70;;;5.60;99.90;;;;;;5088713;28;20051;-60
2023/01/30 07:30:29;;;;;;;28.20;3.60;;;5.60;99.90;;;;;;5107813;28;20043;-60
2023/01/30 07:32:58;;;;;;;14.25;2.53;;;5.60;99.90;;;;;;5108541;28;20453;-61
2023/01/30 07:35:32;;;;;;;14.52;1.75;;;5.60;99.90;;;;;;5097390;27;20044;-60
2023/01/30 07:37:59;;;;;;;22.20;2.58;;;8.20;99.90;;;;;;5099763;27;20044;-60
2023/01/30 07:40:27;;;;;;;15.73;3.30;;;5.50;99.90;;;;;;5107515;28;20044;-59
2023/01/30 07:43:02;;;;;;;27.45;2.17;;;5.50;99.90;;;;;;5108751;27;20406;-60
2023/01/30 07:45:38;;;;;;;16.85;2.58;;;5.50;99.90;;;;;;5110679;28;20043;-61
2023/01/30 07:48:07;;;;;;;21.77;3.97;;;5.60;99.90;;;;;;5110547;28;20054;-59
2023/01/30 07:50:34;;;;;;;16.63;2.20;;;5.60;99.90;;;;;;5100971;28;20066;-59
2023/01/30 07:53:04;;;;;;;29.33;3.28;;;5.70;99.90;;;;;;5107241;28;20048;-60
2023/01/30 07:55:32;;;;;;;17.02;2.72;;;5.70;99.90;;;;;;5107697;28;20381;-60
2023/01/30 07:58:00;;;;;;;48.10;3.63;;;5.70;99.90;;;;;;5107443;28;20050;-62
2023/01/30 08:00:28;;;;;;;19.38;3.20;;;5.70;99.90;;;;;;5091911;27;20051;-60
2023/01/30 08:02:56;;;;;;;15.07;1.83;;;5.80;99.90;;;;;;5092257;27;20051;-60
2023/01/30 08:05:24;;;;;;;23.50;2.88;;;5.80;99.90;;;;;;5089502;27;20050;-60
2023/01/30 08:07:55;;;;;;;15.32;2.33;;;5.80;99.90;;;;;;5093012;28;20048;-59
2023/01/30 08:10:23;;;;;;;20.02;2.08;;;5.80;99.90;;;;;;5090785;28;20047;-62
2023/01/30 08:12:51;;;;;;;11.88;2.10;;;5.80;99.90;;;;;;5083017;27;20629;-61
2023/01/30 08:15:19;;;;;;;20.70;2.33;;;5.80;99.90;;;;;;5095337;27;20052;-60
2023/01/30 08:17:54;;;;;;;12.98;1.73;;;5.80;99.90;;;;;;5079517;27;20043;-60
2023/01/30 08:20:23;;;;;;;14.05;2.88;;;5.80;99.90;;;;;;5086674;28;20040;-60
2023/01/30 08:22:52;;;;;;;26.90;3.42;;;5.70;99.90;;;;;;5103584;27;20035;-58
2023/01/30 08:25:19;;;;;;;12.70;1.88;;;5.70;99.90;;;;;;5106921;28;20417;-59
2023/01/30 08:27:47;;;;;;;26.48;2.72;;;5.60;99.90;;;;;;5108269;28;20042;-59
2023/01/30 08:30:15;;;;;;;25.10;3.22;;;5.60;99.90;;;;;;5108998;28;20438;-62
2023/01/30 08:32:43;;;;;;;18.42;2.47;;;5.60;99.90;;;;;;5109613;27;20043;-62
2023/01/30 08:35:13;;;;;;;16.35;2.28;;;5.50;99.90;;;;;;5093693;27;20051;-62
2023/01/30 08:37:41;;;;;;;22.63;3.47;;;5.50;99.90;;;;;;5098151;28;20039;-59
2023/01/30 08:40:10;;;;;;;21.67;2.53;;;5.50;99.90;;;;;;5091261;28;20047;-61
2023/01/30 08:42:37;;;;;;;19.58;2.60;;;5.50;99.90;;;;;;5104526;28;20052;-60
2023/01/30 08:45:06;;;;;;;15.98;2.30;;;5.50;99.90;;;;;;5108169;28;20055;-59
2023/01/30 08:47:34;;;;;;;17.02;2.15;;;5.60;99.90;;;;;;5107289;28;20048;-58
2023/01/30 08:50:03;;;;;;;21.30;2.00;;;5.60;99.90;;;;;;5107152;28;20043;-60
2023/01/30 08:52:32;;;;;;;15.13;2.10;;;5.60;99.90;;;;;;5109588;28;20035;-61
2023/01/30 08:54:59;;;;;;;23.08;2.25;;;5.60;99.90;;;;;;5091801;28;20044;-62
2023/01/30 08:57:27;;;;;;;14.40;2.22;;;5.70;99.90;;;;;;5112233;28;20047;-61
2023/01/30 08:59:54;;;;;;;22.25;3.17;;;5.70;99.90;;;;;;5121750;28;20404;-61
2023/01/30 09:02:22;;;;;;;18.27;2.42;;;5.60;99.90;;;;;;5109842;28;20048;-61
2023/01/30 09:04:50;;;;;;;10.90;2.00;;;5.60;99.90;;;;;;5098073;28;20044;-61
2023/01/30 09:07:18;;;;;;;18.58;2.83;;;5.50;99.90;;;;;;5103651;28;20394;-59
2023/01/30 09:09:47;;;;;;;14.18;1.77;;;5.50;99.90;;;;;;5109075;28;20059;-59
2023/01/30 09:12:15;;;;;;;27.87;3.13;;;5.50;99.90;;;;;;5091790;28;20419;-59
2023/01/30 09:14:42;;;;;;;16.95;2.35;;;5.50;99.90;;;;;;5108911;28;20055;-58
2023/01/30 09:17:10;;;;;;;15.55;2.35;;;5.50;99.90;;;;;;5109090;28;20407;-59
2023/01/30 09:19:38;;;;;;;21.38;2.63;;;5.50;99.90;;;;;;5096793;28;20044;-58
2023/01/30 09:22:06;;;;;;;18.73;4.03;;;5.60;99.90;;;;;;5085128;28;20056;-57
2023/01/30 09:24:34;;;;;;;13.63;2.80;;;5.60;99.90;;;;;;5109178;28;20379;-58
2023/01/30 09:27:01;;;;;;;21.27;2.75;;;5.60;99.90;;;;;;5112832;28;20048;-58
2023/01/30 09:29:32;;;;;;;13.60;1.95;;;5.60;99.90;;;;;;5133498;27;20047;-59
2023/01/30 09:31:59;;;;;;;23.15;3.85;;;5.60;99.90;;;;;;5108902;28;20040;-58
2023/01/30 09:34:27;;;;;;;25.02;3.03;;;5.60;99.90;;;;;;5115644;27;20040;-61
2023/01/30 09:36:58;;;;;;;18.90;2.50;;;5.60;99.90;;;;;;5104888;28;20047;-61
2023/01/30 09:39:27;;;;;;;18.15;2.13;;;5.70;99.90;;;;;;5111849;27;20044;-61
2023/01/30 09:42:04;;;;;;;21.03;2.67;;;5.70;99.90;;;;;;5094592;28;20058;-60
2023/01/30 09:45:02;;;;;;;21.02;3.33;;;5.70;99.90;;;;;;5093129;28;20303;-60
2023/01/30 09:47:43;;;;;;;21.83;2.80;;;5.80;99.90;;;;;;5116340;27;20044;-61
2023/01/30 09:50:14;;;;;;;17.05;2.42;;;5.90;99.90;;;;;;5082222;28;20055;-62
2023/01/30 09:53:03;;;;;;;15.95;2.13;;;6.10;99.90;;;;;;5105207;28;20047;-62
2023/01/30 09:55:36;;;;;;;27.33;2.97;;;6.20;99.90;;;;;;5074704;28;20047;-59
2023/01/30 09:58:04;;;;;;;22.27;2.92;;;6.30;99.90;;;;;;5109168;28;20047;-60
2023/01/30 10:00:35;;;;;;;21.75;3.63;;;6.40;99.90;;;;;;5093940;28;20066;-60
2023/01/30 10:03:10;;;;;;;20.90;2.33;;;6.50;99.90;;;;;;5112746;28;20062;-60
2023/01/30 10:05:51;;;;;;;21.20;2.67;;;6.60;99.90;;;;;;5110393;27;20043;-60
2023/01/30 10:08:59;;;;;;;21.60;2.50;;;6.60;99.90;;;;;;5094630;28;20051;-60
2023/01/30 10:11:27;;;;;;;19.27;2.70;;;;;;;;;;5110185;28;20047;-60
2023/01/30 10:14:11;;;;;;;13.07;2.17;;;6.70;99.90;;;;;;5107614;28;20047;-62
2023/01/30 10:17:06;;;;;;;20.90;2.88;;;6.70;99.90;;;;;;5111960;28;20047;-61
2023/01/30 10:20:11;;;;;;;12.68;2.25;;;6.70;99.90;;;;;;5108843;28;20175;-60
2023/01/30 10:23:18;;;;;;;22.33;3.63;;;6.70;99.90;;;;;;5101241;28;20031;-60
2023/01/30 10:25:51;;;;;;;11.30;1.70;;;6.70;99.90;;;;;;5101898;28;20047;-60
2023/01/30 10:28:48;;;;;;;20.67;2.95;;;6.70;99.90;;;;;;5111505;27;20041;-60
2023/01/30 10:31:31;;;;;;;26.42;2.53;;;6.70;99.90;;;;;;5095420;28;20048;-60
2023/01/30 10:34:11;;;;;;;21.25;2.28;;;6.70;99.90;;;;;;5111041;27;20043;-60
2023/01/30 10:37:02;;;;;;;20.67;4.38;;;6.80;99.90;;;;;;5103406;27;20394;-61
2023/01/30 10:39:39;;;;;;;22.50;3.28;;;6.90;99.90;;;;;;5111211;28;20838;-61
2023/01/30 10:42:27;;;;;;;;;;;6.90;99.90;;;;;;5112677;28;20047;-60
2023/01/30 10:45:01;;;;;;;15.68;3.15;;;7.00;99.90;;;;;;5119424;27;19967;-58
2023/01/30 10:48:09;;;;;;;16.40;2.00;;;7.00;99.90;;;;;;5120024;27;20050;-61
2023/01/30 10:50:54;;;;;;;22.88;2.67;;;7.00;99.90;;;;;;5092900;28;20052;-59
2023/01/30 10:53:50;;;;;;;24.67;2.92;;;7.10;99.90;;;;;;5092872;28;20055;-58
2023/01/30 10:56:43;;;;;;;22.65;3.30;;;7.10;99.90;;;;;;5111341;28;20047;-58
2023/01/30 10:59:21;;;;;;;24.15;2.83;;;7.10;99.90;;;;;;5111608;28;20406;-59
2023/01/30 11:02:01;;;;;;;22.75;4.20;;;7.10;99.90;;;;;;5110933;28;20040;-57
2023/01/30 11:05:08;;;;;;;20.60;2.25;;;7.30;99.90;;;;;;5100932;28;20048;-58
2023/01/30 11:07:36;;;;;;;21.90;3.10;;;7.50;99.90;;;;;;5011099;28;20054;-57
2023/01/30 11:10:14;;;;;;;21.58;4.00;;;7.70;99.90;;;;;;5013673;28;20057;-57
2023/01/30 11:12:42;;;;;;;25.58;3.33;;;7.80;99.90;;;;;;5053483;28;20048;-58
2023/01/30 11:15:10;;;;;;;19.33;3.88;;;7.90;99.90;;;;;;5132677;27;20046;-57
2023/01/30 11:17:41;;;;;;;20.70;4.13;;;8.00;99.90;;;;;;5111502;27;20043;-57
2023/01/30 11:20:16;;;;;;;19.77;3.35;;;8.10;99.90;;;;;;5106957;27;20479;-57
2023/01/30 11:22:45;;;;;;;17.10;2.83;;;8.10;99.90;;;;;;5101612;27;20505;-58
2023/01/30 11:25:17;;;;;;;27.30;3.92;;;8.20;99.90;;;;;;5132147;27;20066;-57
2023/01/30 11:28:01;;;;;;;21.15;2.83;;;8.30;99.90;;;;;;5127358;27;20050;-58
2023/01/30 11:30:33;;;;;;;22.50;2.97;;;8.30;99.90;;;;;;5131433;27;20043;-58
2023/01/30 11:33:12;;;;;;;18.65;3.00;;;8.40;99.90;;;;;;5114256;27;20039;-58
2023/01/30 11:35:50;;;;;;;15.23;2.23;;;8.50;99.90;;;;;;5103978;28;20673;-58
2023/01/30 11:38:27;;;;;;;20.73;3.28;;;8.50;99.90;;;;;;5099859;28;20043;-57
2023/01/30 11:41:08;;;;;;;20.83;2.88;;;8.60;99.90;;;;;;5092746;28;20494;-58
2023/01/30 11:43:38;;;;;;;21.77;2.80;;;8.70;99.90;;;;;;5109190;28;20478;-57
2023/01/30 11:46:12;;;;;;;23.52;3.20;;;8.80;99.90;;;;;;5129337;27;20043;-58
2023/01/30 11:48:59;;;;;;;23.15;2.40;;;8.80;99.90;;;;;;5117512;27;20044;-58
2023/01/30 11:51:52;;;;;;;14.80;2.83;;;8.70;99.90;;;;;;5099522;28;20035;-57
2023/01/30 11:54:40;;;;;;;18.35;3.17;;;8.60;99.90;;;;;;5111499;27;20052;-57
2023/01/30 11:57:14;;;;;;;28.15;5.15;;;8.60;99.90;;;;;;5108995;28;20063;-57
2023/01/30 11:59:59;;;;;;;25.70;3.20;;;8.50;99.90;;;;;;5093269;28;20039;-58
2023/01/30 12:02:37;;;;;;;23.70;2.53;;;8.50;99.90;;;;;;5108598;28;20552;-58
2023/01/30 12:05:17;;;;;;;24.08;4.95;;;8.30;99.90;;;;;;5109483;28;20483;-58
2023/01/30 12:07:47;;;;;;;22.45;4.30;;;8.30;99.90;;;;;;5107596;28;20044;-58
2023/01/30 12:10:24;;;;;;;20.67;3.90;;;8.30;99.90;;;;;;5109924;28;20055;-58
2023/01/30 12:12:55;;;;;;;27.23;4.47;;;8.30;99.90;;;;;;5104239;27;20039;-60
2023/01/30 12:15:31;;;;;;;24.92;6.47;;;8.30;99.90;;;;;;5123668;27;20051;-59
2023/01/30 12:18:35;;;;;;;27.15;4.35;;;8.40;99.90;;;;;;5107987;28;20545;-60
2023/01/30 12:21:49;;;;;;;18.73;4.60;;;8.60;99.90;;;;;;5092210;28;20052;-59
2023/01/30 12:24:24;;;;;;;13.90;2.90;;;9.20;99.90;;;;;;5086396;28;20071;-58
2023/01/30 12:27:00;;;;;;;17.15;3.35;;;9.80;99.90;;;;;;5093250;28;20039;-57
2023/01/30 12:29:40;;;;;;;18.75;3.70;;;10.00;99.90;;;;;;5103392;28;20394;-58
2023/01/30 12:32:18;;;;;;;24.75;3.15;;;10.30;99.90;;;;;;5109140;28;20051;-58
2023/01/30 12:34:47;;;;;;;22.83;3.00;;;10.40;99.90;;;;;;5106742;28;20040;-57
2023/01/30 12:37:50;;;;;;;31.40;3.63;;;10.40;99.90;;;;;;5091759;28;20044;-58
2023/01/30 12:40:26;;;;;;;18.92;3.05;;;10.00;99.90;;;;;;5106592;28;20050;-58
2023/01/30 12:42:57;;;;;;;19.02;3.20;;;10.00;99.90;;;;;;5110783;28;20729;-59
2023/01/30 12:45:26;;;;;;;26.38;3.35;;;9.70;99.90;;;;;;5113855;28;20042;-57
2023/01/30 12:48:12;;;;;;;18.63;3.38;;;9.70;99.90;;;;;;5109133;28;20052;-57
2023/01/30 12:51:08;;;;;;;20.55;3.47;;;9.60;99.90;;;;;;5104420;28;20044;-60
2023/01/30 12:54:04;;;;;;;17.08;3.50;;;9.40;99.90;;;;;;5103320;28;20052;-58
2023/01/30 12:56:35;;;;;;;21.40;3.05;;;9.20;99.90;;;;;;5096000;28;20066;-57
2023/01/30 12:59:11;;;;;;;19.52;3.17;;;9.00;99.90;;;;;;5101688;28;20051;-60
2023/01/30 13:01:48;;;;;;;14.48;3.53;;;9.10;99.90;;;;;;5089864;28;20047;-61
2023/01/30 13:04:37;;;;;;;14.75;2.88;;;9.10;99.90;;;;;;5112467;28;20573;-60
2023/01/30 13:07:35;;;;;;;23.23;3.15;;;12.70;99.90;;;;;;5111638;28;20384;-60
2023/01/30 13:10:26;;;;;;;19.27;3.38;;;9.90;99.90;;;;;;5113855;28;20047;-58
2023/01/30 13:13:06;;;;;;;15.05;2.00;;;9.90;99.90;;;;;;5095645;27;20043;-60
2023/01/30 13:15:48;;;;;;;25.65;3.55;;;9.80;99.90;;;;;;5134420;27;20054;-58
2023/01/30 13:18:33;;;;;;;16.08;2.60;;;9.50;99.90;;;;;;5114864;27;20049;-58
2023/01/30 13:21:41;;;;;;;16.40;2.33;;;9.10;99.90;;;;;;5094159;28;20044;-60
2023/01/30 13:24:40;;;;;;;17.52;2.50;;;8.90;99.90;;;;;;5039551;28;20053;-58
2023/01/30 13:27:17;;;;;;;21.00;3.38;;;8.90;99.90;;;;;;5075357;28;20399;-57
2023/01/30 13:29:47;;;;;;;18.52;2.72;;;8.90;99.90;;;;;;5092914;28;20055;-58